Perez Millan, Argentina
Current Conditions -  °F | °C
As of 7:00 PM on Thursday 27 Nov 2014 (Local Time) from SAAR Reporting Station
Clear Clear  
Wind Chill: 28°   Ceiling: Unl
Heat Index: 28°   Visibility: 6mi
Dew Point: 13°   Wind: 9mph
Humidity: 39%   Direction: 90°E
Pressure: 29.88"   Gusts: NA
Location:  33.78°S, 60.12°W
Report Text: SAAR 272200Z 09008KT CAVOK 28/13 Q1012
Loading
Personal Weather Stations






























Interactive Weather Map New forecast layout! Learn more

10-Day Weather Forecast

Advertisements
Track Severe Weather on mobile